createdAt,value
2023-01-18T00:00:41.415Z,9.67
2023-01-18T00:03:13.683Z,9.67
2023-01-18T00:05:42.344Z,9.63
2023-01-18T00:08:19.584Z,9.72
2023-01-18T00:10:47.025Z,9.60
2023-01-18T00:13:14.290Z,9.64
2023-01-18T00:15:41.507Z,9.76
2023-01-18T00:18:08.804Z,9.64
2023-01-18T00:20:36.028Z,9.58
2023-01-18T00:23:03.276Z,9.69
2023-01-18T00:25:31.075Z,9.83
2023-01-18T00:27:58.596Z,9.75
2023-01-18T00:30:28.568Z,9.77
2023-01-18T00:32:58.333Z,9.79
2023-01-18T00:35:26.143Z,9.81
2023-01-18T00:37:54.344Z,9.79
2023-01-18T00:40:22.967Z,9.81
2023-01-18T00:43:08.867Z,9.81
2023-01-18T00:45:36.168Z,9.67
2023-01-18T00:48:03.514Z,9.56
2023-01-18T00:50:30.819Z,9.62
2023-01-18T00:53:00.189Z,9.56
2023-01-18T00:55:28.093Z,9.50
2023-01-18T00:57:55.395Z,9.43
2023-01-18T01:00:23.788Z,9.42
2023-01-18T01:02:51.797Z,9.42
2023-01-18T01:05:40.502Z,9.35
2023-01-18T01:08:08.118Z,9.35
2023-01-18T01:10:35.915Z,9.25
2023-01-18T01:13:21.931Z,9.16
2023-01-18T01:16:07.850Z,9.18
2023-01-18T01:18:53.419Z,9.02
2023-01-18T01:21:39.110Z,8.99
2023-01-18T01:24:25.167Z,9.26
2023-01-18T01:26:52.498Z,8.95
2023-01-18T01:29:19.733Z,9.11
2023-01-18T01:31:47.037Z,9.06
2023-01-18T01:34:14.300Z,8.92
2023-01-18T01:36:41.524Z,8.91
2023-01-18T01:39:11.064Z,8.85
2023-01-18T01:41:38.919Z,8.92
2023-01-18T01:44:19.563Z,8.81
2023-01-18T01:46:59.446Z,8.82
2023-01-18T01:49:34.828Z,8.72
2023-01-18T01:52:15.455Z,8.67
2023-01-18T01:54:48.669Z,8.61
2023-01-18T01:57:50.028Z,8.63
2023-01-18T02:00:20.952Z,8.73
2023-01-18T02:02:53.273Z,8.72
2023-01-18T02:05:20.859Z,8.56
2023-01-18T02:07:48.390Z,8.46
2023-01-18T02:10:16.388Z,8.42
2023-01-18T02:12:46.439Z,8.35
2023-01-18T02:15:13.776Z,8.30
2023-01-18T02:17:40.959Z,8.31
2023-01-18T02:20:37.948Z,8.28
2023-01-18T02:23:32.233Z,8.20
2023-01-18T02:26:44.872Z,8.19
2023-01-18T02:29:20.445Z,8.15
2023-01-18T02:32:25.303Z,8.40
2023-01-18T02:35:06.005Z,8.15
2023-01-18T02:37:33.165Z,8.04
2023-01-18T02:40:32.676Z,7.96
2023-01-18T02:43:23.085Z,8.00
2023-01-18T02:46:09.000Z,7.97
2023-01-18T02:48:40.389Z,7.90
2023-01-18T02:51:08.047Z,7.69
2023-01-18T02:53:42.329Z,7.53
2023-01-18T02:56:27.955Z,7.47
2023-01-18T02:59:01.281Z,7.60
2023-01-18T03:01:48.486Z,7.40
2023-01-18T03:04:21.811Z,7.31
2023-01-18T03:06:57.350Z,7.24
2023-01-18T03:09:27.323Z,7.25
2023-01-18T03:12:02.489Z,7.21
2023-01-18T03:14:57.172Z,7.20
2023-01-18T03:17:40.757Z,7.14
2023-01-18T03:20:18.027Z,7.17
2023-01-18T03:23:22.214Z,7.15
2023-01-18T03:25:51.868Z,7.05
2023-01-18T03:28:47.258Z,7.05
2023-01-18T03:31:41.858Z,7.08
2023-01-18T03:34:19.405Z,7.11
2023-01-18T03:36:49.165Z,7.23
2023-01-18T03:39:38.403Z,7.23
2023-01-18T03:42:37.492Z,7.34
2023-01-18T03:45:37.953Z,7.20
2023-01-18T03:48:07.762Z,7.17
2023-01-18T03:50:52.862Z,7.17
2023-01-18T03:53:52.957Z,7.25
2023-01-18T03:56:34.652Z,7.20
2023-01-18T03:59:04.473Z,7.26
2023-01-18T04:01:32.322Z,7.34
2023-01-18T04:03:59.648Z,7.44
2023-01-18T04:06:27.928Z,7.38
2023-01-18T04:08:55.435Z,7.64
2023-01-18T04:11:22.629Z,7.43
2023-01-18T04:13:49.830Z,7.50
2023-01-18T04:16:17.184Z,7.43
2023-01-18T04:18:44.461Z,7.53
2023-01-18T04:21:11.729Z,7.49
2023-01-18T04:23:39.001Z,7.46
2023-01-18T04:26:06.334Z,7.41
2023-01-18T04:28:34.606Z,7.51
2023-01-18T04:31:02.059Z,7.42
2023-01-18T04:33:29.340Z,7.40
2023-01-18T04:35:56.545Z,7.46
2023-01-18T04:38:23.933Z,7.49
2023-01-18T04:40:51.265Z,7.61
2023-01-18T04:43:18.607Z,7.62
2023-01-18T04:45:55.710Z,7.62
2023-01-18T04:48:24.322Z,7.68
2023-01-18T04:50:52.228Z,7.67
2023-01-18T04:53:20.045Z,7.85
2023-01-18T04:55:47.360Z,7.97
2023-01-18T04:58:15.216Z,8.23
2023-01-18T05:00:42.868Z,8.44
2023-01-18T05:03:11.769Z,8.61
2023-01-18T05:05:39.351Z,8.81
2023-01-18T05:08:06.555Z,8.88
2023-01-18T05:10:33.892Z,9.10
2023-01-18T05:13:01.751Z,9.30
2023-01-18T05:15:29.212Z,9.39
2023-01-18T05:17:56.455Z,9.48
2023-01-18T05:20:23.829Z,9.61
2023-01-18T05:22:51.095Z,9.76
2023-01-18T05:25:18.293Z,9.85
2023-01-18T05:27:45.636Z,9.93
2023-01-18T05:30:13.991Z,10.01
2023-01-18T05:32:41.219Z,10.11
2023-01-18T05:35:08.939Z,10.24
2023-01-18T05:37:36.223Z,10.37
2023-01-18T05:40:03.803Z,10.50
2023-01-18T05:42:31.158Z,10.13
2023-01-18T05:44:58.353Z,9.81
2023-01-18T05:47:25.660Z,9.56
2023-01-18T05:49:52.880Z,9.50
2023-01-18T05:52:20.113Z,9.19
2023-01-18T05:54:47.873Z,8.52
2023-01-18T05:57:15.203Z,8.07
2023-01-18T05:59:42.394Z,7.79
2023-01-18T06:02:09.695Z,7.58
2023-01-18T06:04:37.020Z,7.35
2023-01-18T06:07:04.339Z,7.20
2023-01-18T06:09:31.666Z,7.12
2023-01-18T06:11:58.979Z,7.15
2023-01-18T06:14:26.227Z,7.07
2023-01-18T06:16:53.494Z,7.06
2023-01-18T06:19:20.778Z,7.00
2023-01-18T06:21:48.105Z,7.01
2023-01-18T06:24:15.355Z,6.97
2023-01-18T06:26:42.641Z,6.89
2023-01-18T06:29:09.926Z,6.86
2023-01-18T06:31:37.278Z,6.80
2023-01-18T06:34:09.432Z,6.86
2023-01-18T06:36:38.474Z,6.74
2023-01-18T06:39:06.826Z,6.65
2023-01-18T06:41:34.081Z,6.73
2023-01-18T06:44:01.494Z,6.68
2023-01-18T06:46:29.072Z,6.57
2023-01-18T06:48:56.620Z,6.46
2023-01-18T06:51:24.210Z,6.48
2023-01-18T06:53:51.477Z,6.43
2023-01-18T06:56:18.841Z,6.43
2023-01-18T06:58:46.103Z,6.49
2023-01-18T07:01:13.457Z,6.48
2023-01-18T07:03:40.780Z,6.59
2023-01-18T07:06:08.043Z,6.54
2023-01-18T07:08:40.150Z,6.52
2023-01-18T07:11:09.844Z,6.58
2023-01-18T07:13:40.212Z,6.47
2023-01-18T07:16:08.575Z,6.53
2023-01-18T07:18:35.820Z,6.73
2023-01-18T07:21:10.096Z,6.79
2023-01-18T07:23:40.288Z,6.70
2023-01-18T07:26:10.415Z,6.68
2023-01-18T07:28:38.207Z,6.86
2023-01-18T07:31:08.092Z,6.75
2023-01-18T07:33:36.047Z,6.82
2023-01-18T07:36:06.327Z,6.77
2023-01-18T07:38:34.221Z,6.84
2023-01-18T07:41:03.418Z,6.81
2023-01-18T07:43:33.001Z,6.92
2023-01-18T07:46:01.740Z,7.10
2023-01-18T07:48:29.329Z,7.10
2023-01-18T07:51:07.705Z,6.86
2023-01-18T07:53:36.566Z,6.84
2023-01-18T07:56:09.476Z,6.75
2023-01-18T07:58:37.555Z,6.76
2023-01-18T08:01:07.313Z,6.92
2023-01-18T08:03:36.388Z,7.07
2023-01-18T08:06:05.765Z,7.17
2023-01-18T08:08:34.823Z,6.98
2023-01-18T08:11:03.948Z,6.74
2023-01-18T08:13:31.334Z,6.67
2023-01-18T08:16:00.602Z,6.60
2023-01-18T08:18:28.522Z,6.67
2023-01-18T08:20:56.207Z,6.68
2023-01-18T08:23:23.848Z,6.68
2023-01-18T08:25:51.312Z,6.68
2023-01-18T08:28:19.328Z,6.79
2023-01-18T08:30:48.404Z,7.10
2023-01-18T08:33:15.807Z,7.13
2023-01-18T08:35:47.809Z,7.14
2023-01-18T08:38:16.239Z,7.03
2023-01-18T08:40:43.618Z,7.21
2023-01-18T08:43:11.914Z,7.47
2023-01-18T08:45:39.164Z,7.56
2023-01-18T08:48:10.021Z,7.45
2023-01-18T08:50:39.271Z,6.85
2023-01-18T08:53:06.568Z,6.72
2023-01-18T08:55:35.558Z,6.68
2023-01-18T08:58:02.786Z,6.63
2023-01-18T09:00:30.361Z,6.81
2023-01-18T09:02:58.542Z,6.81
2023-01-18T09:05:27.195Z,6.79
2023-01-18T09:07:55.785Z,6.74
2023-01-18T09:10:23.484Z,6.77
2023-01-18T09:12:52.933Z,6.74
2023-01-18T09:15:21.537Z,7.02
2023-01-18T09:17:48.892Z,7.15
2023-01-18T09:20:18.732Z,7.26
2023-01-18T09:22:48.116Z,7.41
2023-01-18T09:25:18.184Z,7.33
2023-01-18T09:27:46.685Z,7.26
2023-01-18T09:30:16.136Z,7.62
2023-01-18T09:32:43.422Z,7.58
2023-01-18T09:35:10.712Z,7.63
2023-01-18T09:37:37.986Z,7.80
2023-01-18T09:40:05.778Z,7.82
2023-01-18T09:42:41.205Z,7.88
2023-01-18T09:45:23.887Z,7.92
2023-01-18T09:48:00.051Z,7.98
2023-01-18T09:50:27.681Z,8.11
2023-01-18T09:53:04.155Z,8.15
2023-01-18T09:56:18.496Z,8.27
2023-01-18T09:58:55.572Z,8.10
2023-01-18T10:01:26.745Z,8.19
2023-01-18T10:04:33.011Z,8.45
2023-01-18T10:07:03.573Z,8.46
2023-01-18T10:09:40.615Z,8.41
2023-01-18T10:12:34.311Z,8.42
2023-01-18T10:15:17.566Z,8.50
2023-01-18T10:17:45.910Z,8.54
2023-01-18T10:20:42.633Z,8.72
2023-01-18T10:23:23.408Z,8.78
2023-01-18T10:25:56.744Z,8.88
2023-01-18T10:28:42.250Z,8.93
2023-01-18T10:31:17.063Z,9.09
2023-01-18T10:33:46.110Z,9.06
2023-01-18T10:36:26.561Z,9.02
2023-01-18T10:38:55.540Z,9.24
2023-01-18T10:41:31.665Z,9.36
2023-01-18T10:43:59.018Z,9.20
2023-01-18T10:46:26.454Z,9.31
2023-01-18T10:48:59.448Z,9.33
2023-01-18T10:51:37.789Z,9.57
2023-01-18T10:54:26.907Z,9.26
2023-01-18T10:57:04.760Z,9.42
2023-01-18T10:59:40.058Z,9.64
2023-01-18T11:02:21.112Z,9.65
2023-01-18T11:04:56.872Z,9.68
2023-01-18T11:07:26.534Z,9.95
2023-01-18T11:09:59.285Z,10.18
2023-01-18T11:12:42.436Z,10.21
2023-01-18T11:15:15.684Z,10.01
2023-01-18T11:17:44.640Z,9.86
2023-01-18T11:20:40.601Z,10.12
2023-01-18T11:23:10.849Z,10.05
2023-01-18T11:25:40.659Z,10.23
2023-01-18T11:28:30.850Z,10.34
2023-01-18T11:31:13.822Z,10.27
2023-01-18T11:33:51.587Z,10.46
2023-01-18T11:36:21.152Z,10.49
2023-01-18T11:38:48.639Z,10.70
2023-01-18T11:41:20.338Z,10.77
2023-01-18T11:44:19.024Z,10.86
2023-01-18T11:46:52.194Z,10.77
2023-01-18T11:49:53.491Z,11.03
2023-01-18T11:52:46.807Z,11.08
2023-01-18T11:55:23.564Z,11.13
2023-01-18T11:57:52.831Z,11.06
2023-01-18T12:00:28.470Z,11.01
2023-01-18T12:03:21.206Z,11.25
2023-01-18T12:06:00.153Z,11.17
2023-01-18T12:08:39.493Z,11.06
2023-01-18T12:11:34.832Z,11.16
2023-01-18T12:14:35.147Z,11.25
2023-01-18T12:17:45.976Z,11.37
2023-01-18T12:20:58.429Z,11.54
2023-01-18T12:23:42.391Z,11.30
2023-01-18T12:26:47.266Z,11.33
2023-01-18T12:29:54.620Z,11.52
2023-01-18T12:32:48.171Z,11.57
2023-01-18T12:35:37.609Z,11.79
2023-01-18T12:38:29.019Z,11.79
2023-01-18T12:41:14.917Z,11.75
2023-01-18T12:43:57.604Z,11.82
2023-01-18T12:46:36.637Z,11.81
2023-01-18T12:49:19.179Z,11.83
2023-01-18T12:51:50.981Z,11.92
2023-01-18T12:54:45.984Z,11.64
2023-01-18T12:57:15.158Z,11.69
2023-01-18T12:59:57.918Z,11.89
2023-01-18T13:02:55.825Z,12.09
2023-01-18T13:05:52.570Z,12.18
2023-01-18T13:08:31.941Z,12.27
2023-01-18T13:11:23.985Z,12.14
2023-01-18T13:14:15.501Z,12.05
2023-01-18T13:17:09.224Z,12.16
2023-01-18T13:19:43.195Z,11.96
2023-01-18T13:22:28.933Z,11.96
2023-01-18T13:25:14.925Z,11.85
2023-01-18T13:28:03.905Z,11.83
2023-01-18T13:30:35.115Z,11.78
2023-01-18T13:33:12.694Z,11.44
2023-01-18T13:35:51.458Z,11.46
2023-01-18T13:38:27.500Z,11.42
2023-01-18T13:41:03.913Z,11.31
2023-01-18T13:43:37.068Z,11.14
2023-01-18T13:46:07.423Z,11.26
2023-01-18T13:48:46.608Z,11.29
2023-01-18T13:51:42.050Z,11.56
2023-01-18T13:54:18.189Z,11.74
2023-01-18T13:57:09.706Z,11.81
2023-01-18T13:59:40.743Z,11.78
2023-01-18T14:02:29.502Z,11.71
2023-01-18T14:04:59.751Z,11.59
2023-01-18T14:07:27.938Z,11.25
2023-01-18T14:10:03.461Z,11.20
2023-01-18T14:12:50.804Z,11.17
2023-01-18T14:15:24.954Z,10.91
2023-01-18T14:17:58.539Z,10.86
2023-01-18T14:20:51.855Z,10.64
2023-01-18T14:23:46.557Z,10.51
2023-01-18T14:26:18.412Z,10.30
2023-01-18T14:28:54.721Z,10.19
2023-01-18T14:31:30.537Z,10.07
2023-01-18T14:33:57.815Z,9.99
2023-01-18T14:36:27.673Z,10.02
2023-01-18T14:39:12.806Z,10.07
2023-01-18T14:41:50.691Z,10.11
2023-01-18T14:44:22.478Z,10.06
2023-01-18T14:46:59.510Z,9.96
2023-01-18T14:49:35.293Z,9.88
2023-01-18T14:52:04.278Z,9.87
2023-01-18T18:00:08.330Z,8.53
2023-01-18T18:02:35.690Z,8.49
2023-01-18T18:05:04.110Z,8.55
2023-01-18T18:07:31.465Z,8.53
2023-01-18T18:10:01.217Z,8.56
2023-01-18T18:12:29.480Z,8.41
2023-01-18T18:14:56.698Z,8.70
2023-01-18T18:17:26.478Z,8.70
2023-01-18T18:19:53.789Z,8.75
2023-01-18T18:22:21.387Z,8.63
2023-01-18T18:24:49.086Z,8.66
2023-01-18T18:27:17.552Z,8.76
2023-01-18T18:29:44.951Z,8.68
2023-01-18T18:32:18.314Z,8.69
2023-01-18T18:34:45.650Z,8.61
2023-01-18T18:37:15.114Z,8.50
2023-01-18T18:39:42.507Z,8.53
2023-01-18T18:42:09.776Z,8.58
2023-01-18T18:44:37.001Z,8.55
2023-01-18T18:47:06.716Z,8.48
2023-01-18T18:49:33.999Z,8.48
2023-01-18T18:52:02.386Z,8.52
2023-01-18T18:54:29.699Z,8.49
2023-01-18T18:56:57.060Z,8.58
2023-01-18T18:59:24.567Z,8.53
2023-01-18T19:01:52.423Z,8.57
2023-01-18T19:04:20.970Z,8.75
2023-01-18T19:06:48.272Z,8.85
2023-01-18T19:09:15.571Z,8.87
2023-01-18T19:11:50.560Z,8.65
2023-01-18T19:14:25.700Z,8.63
2023-01-18T19:16:54.106Z,8.60
2023-01-18T19:19:21.481Z,8.76
2023-01-18T19:21:49.404Z,8.40
2023-01-18T19:24:16.766Z,8.51
2023-01-18T19:26:45.044Z,8.45
2023-01-18T19:29:12.786Z,8.45
2023-01-18T19:31:40.311Z,8.20
2023-01-18T19:34:07.679Z,8.18
2023-01-18T19:36:35.353Z,8.03
2023-01-18T19:39:07.009Z,8.11
2023-01-18T19:41:36.584Z,8.05
2023-01-18T19:44:04.162Z,8.01
2023-01-18T19:46:31.560Z,8.01
2023-01-18T19:48:59.444Z,8.38
2023-01-18T19:51:27.797Z,8.02
2023-01-18T19:53:57.181Z,8.01
2023-01-18T19:56:25.697Z,8.13
2023-01-18T19:58:53.111Z,8.14
2023-01-18T20:01:35.079Z,8.00
2023-01-18T20:04:05.823Z,8.18
2023-01-18T20:06:33.756Z,8.30
2023-01-18T20:09:02.698Z,8.16
2023-01-18T20:11:29.982Z,8.22
2023-01-18T20:13:57.335Z,8.45
2023-01-18T20:16:24.719Z,8.48
2023-01-18T20:18:52.934Z,8.13
2023-01-18T20:21:20.191Z,7.79
2023-01-18T20:23:47.685Z,7.79
2023-01-18T20:26:20.059Z,7.78
2023-01-18T20:28:55.976Z,7.68
2023-01-18T20:31:23.340Z,7.69
2023-01-18T20:33:50.633Z,7.51
2023-01-18T20:36:18.045Z,7.99
2023-01-18T20:38:45.343Z,7.76
2023-01-18T20:41:12.817Z,8.00
2023-01-18T20:43:40.523Z,7.81
2023-01-18T20:46:10.093Z,7.61
2023-01-18T20:48:38.345Z,7.59
2023-01-18T20:51:07.563Z,7.55
2023-01-18T20:53:35.803Z,7.46
2023-01-18T20:56:11.981Z,7.50
2023-01-18T20:58:51.423Z,7.54
2023-01-18T21:01:19.314Z,7.49
2023-01-18T21:03:52.139Z,7.40
2023-01-18T21:06:19.366Z,7.41
2023-01-18T21:08:46.909Z,7.44
2023-01-18T21:11:22.847Z,7.47
2023-01-18T21:13:50.395Z,7.67
2023-01-18T21:16:18.269Z,7.76
2023-01-18T21:18:45.749Z,7.88
2023-01-18T21:21:13.409Z,7.97
2023-01-18T21:23:41.779Z,7.91
2023-01-18T21:26:12.085Z,7.78
2023-01-18T21:28:40.372Z,7.76
2023-01-18T21:31:08.334Z,7.83
2023-01-18T21:33:36.160Z,7.63
2023-01-18T21:36:13.919Z,7.72
2023-01-18T21:38:41.902Z,7.62
2023-01-18T21:41:28.805Z,7.69
2023-01-18T21:44:14.967Z,7.85
2023-01-18T21:46:51.272Z,7.95
2023-01-18T21:52:46.193Z,7.99
2023-01-18T21:55:15.545Z,7.97
2023-01-18T21:57:46.350Z,7.97
2023-01-18T22:00:14.689Z,8.07
2023-01-18T22:02:42.595Z,7.82
2023-01-18T22:05:13.462Z,7.86
2023-01-18T22:07:41.114Z,7.81
2023-01-18T22:10:09.478Z,7.95
2023-01-18T22:12:39.198Z,8.10
2023-01-18T22:15:07.237Z,8.01
2023-01-18T22:17:34.734Z,8.01
2023-01-18T22:20:02.503Z,7.82
2023-01-18T22:22:30.927Z,7.71
2023-01-18T22:25:02.242Z,7.78
2023-01-18T22:27:30.441Z,7.75
2023-01-18T22:30:00.041Z,7.92
2023-01-18T22:32:27.745Z,7.82
2023-01-18T22:34:55.572Z,7.90
2023-01-18T22:37:23.810Z,7.84
2023-01-18T22:39:51.812Z,7.83
2023-01-18T22:42:19.811Z,7.86
2023-01-18T22:44:48.132Z,7.90
2023-01-18T22:47:15.932Z,7.96
2023-01-18T22:49:43.334Z,7.96
2023-01-18T22:52:10.530Z,7.97
2023-01-18T22:54:37.853Z,8.02
2023-01-18T22:57:05.303Z,8.01
2023-01-18T22:59:32.614Z,8.05
2023-01-18T23:01:59.895Z,8.08
2023-01-18T23:04:35.650Z,8.12
2023-01-18T23:07:04.699Z,8.13
2023-01-18T23:09:32.143Z,8.14
2023-01-18T23:11:59.393Z,8.15
2023-01-18T23:14:45.212Z,8.24
2023-01-18T23:17:32.050Z,8.41
2023-01-18T23:19:59.372Z,8.35
2023-01-18T23:22:26.773Z,8.52
2023-01-18T23:24:54.681Z,8.61
2023-01-18T23:27:21.978Z,8.57
2023-01-18T23:29:55.532Z,8.46
2023-01-18T23:32:26.725Z,8.59
2023-01-18T23:34:55.456Z,8.52
2023-01-18T23:37:23.625Z,8.42
2023-01-18T23:40:09.545Z,8.57
2023-01-18T23:42:55.993Z,8.35
2023-01-18T23:45:42.055Z,8.30
2023-01-18T23:48:35.052Z,8.29
2023-01-18T23:51:21.655Z,8.24
2023-01-18T23:54:07.470Z,8.16
2023-01-18T23:56:34.797Z,8.16
2023-01-18T23:59:02.594Z,8.17
